createdAt,value
2023-02-28T00:00:53.309Z,96013.72
2023-02-28T00:03:22.959Z,96009.13
2023-02-28T00:05:52.424Z,96005.19
2023-02-28T00:08:21.863Z,96006.53
2023-02-28T00:10:51.285Z,96008.50
2023-02-28T00:13:20.715Z,95998.31
2023-02-28T00:16:02.816Z,95998.50
2023-02-28T00:18:32.462Z,96002.31
2023-02-28T00:21:02.184Z,96002.47
2023-02-28T00:23:31.877Z,96001.19
2023-02-28T00:26:01.365Z,95999.88
2023-02-28T00:28:30.977Z,96000.88
2023-02-28T00:31:03.788Z,95998.41
2023-02-28T00:33:33.306Z,95993.97
2023-02-28T00:36:11.354Z,95996.78
2023-02-28T00:38:42.529Z,96000.75
2023-02-28T00:41:12.617Z,95993.66
2023-02-28T00:43:42.637Z,95990.22
2023-02-28T00:46:15.588Z,95992.72
2023-02-28T00:48:45.194Z,95991.06
2023-02-28T00:51:14.696Z,95984.38
2023-02-28T00:53:44.333Z,95995.22
2023-02-28T00:56:14.597Z,95997.03
2023-02-28T00:58:44.228Z,95990.47
2023-02-28T01:01:15.680Z,95994.09
2023-02-28T01:03:45.162Z,95994.91
2023-02-28T01:06:14.625Z,95988.00
2023-02-28T01:08:44.374Z,96001.34
2023-02-28T01:11:18.258Z,95990.81
2023-02-28T01:13:48.987Z,95992.13
2023-02-28T01:16:20.164Z,95986.88
2023-02-28T01:18:49.664Z,95985.25
2023-02-28T01:21:23.361Z,95985.56
2023-02-28T01:23:53.896Z,95980.00
2023-02-28T01:26:25.042Z,95989.25
2023-02-28T01:28:55.615Z,95986.97
2023-02-28T01:31:27.128Z,95986.31
2023-02-28T01:33:56.767Z,95991.91
2023-02-28T01:36:27.792Z,95985.00
2023-02-28T01:38:58.906Z,95979.44
2023-02-28T01:41:33.480Z,95979.25
2023-02-28T01:44:08.504Z,95975.97
2023-02-28T01:46:39.321Z,95975.31
2023-02-28T01:49:15.663Z,95969.56
2023-02-28T01:51:52.351Z,95966.94
2023-02-28T01:54:28.043Z,95976.66
2023-02-28T01:57:03.223Z,95977.81
2023-02-28T01:59:41.527Z,95976.16
2023-02-28T02:02:12.706Z,95967.66
2023-02-28T02:04:53.189Z,95968.81
2023-02-28T02:07:25.839Z,95960.25
2023-02-28T02:10:06.545Z,95960.59
2023-02-28T02:13:27.066Z,95957.81
2023-02-28T02:16:10.967Z,95956.34
2023-02-28T02:18:49.191Z,95947.97
2023-02-28T02:22:33.682Z,95953.38
2023-02-28T02:25:23.801Z,95958.81
2023-02-28T02:28:47.451Z,95951.59
2023-02-28T02:31:54.114Z,95946.50
2023-02-28T02:34:44.776Z,95937.16
2023-02-28T02:37:29.988Z,95938.94
2023-02-28T02:40:12.409Z,95940.94
2023-02-28T02:42:53.071Z,95936.84
2023-02-28T02:45:29.533Z,95931.75
2023-02-28T02:48:01.801Z,95927.84
2023-02-28T02:50:41.495Z,95944.25
2023-02-28T02:53:13.254Z,95943.59
2023-02-28T02:55:48.606Z,95928.97
2023-02-28T02:58:24.640Z,95928.50
2023-02-28T03:01:00.252Z,95936.53
2023-02-28T03:03:32.528Z,95938.19
2023-02-28T03:06:05.136Z,95946.88
2023-02-28T03:08:39.443Z,95938.19
2023-02-28T03:11:15.854Z,95951.63
2023-02-28T03:14:16.482Z,95953.44
2023-02-28T03:17:25.799Z,95940.47
2023-02-28T03:20:09.019Z,95951.97
2023-02-28T03:23:00.722Z,95950.50
2023-02-28T03:25:40.464Z,95948.03
2023-02-28T03:28:18.071Z,95954.94
2023-02-28T03:30:54.736Z,95953.28
2023-02-28T03:33:30.556Z,95958.06
2023-02-28T03:36:06.779Z,95952.00
2023-02-28T03:38:42.526Z,95951.19
2023-02-28T03:41:19.080Z,95949.53
2023-02-28T03:43:55.836Z,95941.16
2023-02-28T03:46:31.009Z,95943.47
2023-02-28T03:49:10.349Z,95951.19
2023-02-28T03:51:42.785Z,95949.88
2023-02-28T03:54:20.258Z,95953.16
2023-02-28T03:56:57.640Z,95954.97
2023-02-28T03:59:34.599Z,95947.56
2023-02-28T04:02:04.595Z,95962.19
2023-02-28T04:04:34.351Z,95967.09
2023-02-28T04:07:08.402Z,95964.31
2023-02-28T04:09:39.758Z,95975.28
2023-02-28T04:12:10.246Z,95977.09
2023-02-28T04:14:39.744Z,95978.06
2023-02-28T04:17:09.284Z,95978.22
2023-02-28T04:19:39.050Z,95992.84
2023-02-28T04:22:09.988Z,95986.59
2023-02-28T04:24:42.299Z,95991.69
2023-02-28T04:27:12.041Z,95988.09
2023-02-28T04:29:45.532Z,95996.13
2023-02-28T04:32:15.728Z,95989.06
2023-02-28T04:34:45.287Z,95997.25
2023-02-28T04:37:14.676Z,95990.00
2023-02-28T04:39:46.041Z,95989.69
2023-02-28T04:42:15.793Z,95982.13
2023-02-28T04:44:45.217Z,95986.22
2023-02-28T04:47:14.709Z,95984.91
2023-02-28T04:49:44.117Z,95981.13
2023-02-28T04:52:14.219Z,95991.59
2023-02-28T04:54:45.050Z,95989.13
2023-02-28T04:57:15.123Z,95990.44
2023-02-28T04:59:45.081Z,95989.13
2023-02-28T05:02:14.591Z,95986.31
2023-02-28T05:04:44.071Z,95988.78
2023-02-28T05:07:13.585Z,95985.00
2023-02-28T05:09:44.371Z,96001.09
2023-02-28T05:12:13.839Z,95989.59
2023-02-28T05:14:43.590Z,95995.50
2023-02-28T05:17:13.142Z,95998.13
2023-02-28T05:19:42.574Z,95991.72
2023-02-28T05:22:17.317Z,95995.94
2023-02-28T05:24:48.096Z,95999.22
2023-02-28T05:27:17.491Z,96000.06
2023-02-28T05:29:47.187Z,95999.72
2023-02-28T05:32:17.719Z,95992.66
2023-02-28T05:34:47.426Z,95996.75
2023-02-28T05:37:17.591Z,96001.84
2023-02-28T05:39:48.446Z,96002.31
2023-02-28T05:42:17.957Z,95994.44
2023-02-28T05:44:48.433Z,95992.47
2023-02-28T05:47:17.910Z,95988.84
2023-02-28T05:49:47.340Z,95998.19
2023-02-28T05:52:17.404Z,95997.38
2023-02-28T05:54:48.991Z,95998.38
2023-02-28T05:57:24.385Z,96006.91
2023-02-28T05:59:54.344Z,96005.75
2023-02-28T06:02:23.867Z,96002.31
2023-02-28T06:04:53.289Z,95997.53
2023-02-28T06:07:23.397Z,96005.84
2023-02-28T06:09:54.211Z,96017.22
2023-02-28T06:12:23.664Z,96011.50
2023-02-28T06:14:53.134Z,96007.06
2023-02-28T06:17:22.741Z,96012.13
2023-02-28T06:19:52.194Z,96011.78
2023-02-28T06:22:21.611Z,96010.13
2023-02-28T06:24:51.402Z,96015.22
2023-02-28T06:27:23.040Z,96021.13
2023-02-28T06:29:57.540Z,96028.22
2023-02-28T06:32:28.085Z,96029.69
2023-02-28T06:34:58.962Z,96039.06
2023-02-28T06:37:28.502Z,96038.06
2023-02-28T06:39:58.288Z,96042.81
2023-02-28T06:42:31.908Z,96037.56
2023-02-28T06:45:04.228Z,96048.25
2023-02-28T06:47:34.143Z,96055.16
2023-02-28T06:50:04.114Z,96059.59
2023-02-28T06:52:33.902Z,96056.78
2023-02-28T06:55:04.243Z,96063.53
2023-02-28T06:57:37.842Z,96064.50
2023-02-28T07:00:15.259Z,96076.69
2023-02-28T07:02:44.896Z,96062.69
2023-02-28T07:05:14.724Z,96066.63
2023-02-28T07:07:46.355Z,96064.66
2023-02-28T07:10:20.181Z,96056.75
2023-02-28T07:12:52.333Z,96065.75
2023-02-28T07:15:21.862Z,96065.59
2023-02-28T07:17:51.610Z,96068.06
2023-02-28T07:20:21.692Z,96063.94
2023-02-28T07:22:57.056Z,96069.88
2023-02-28T07:25:28.687Z,96073.28
2023-02-28T07:28:01.255Z,96073.13
2023-02-28T07:30:30.852Z,96072.13
2023-02-28T07:33:00.376Z,96062.41
2023-02-28T07:35:29.986Z,96067.16
2023-02-28T07:38:00.607Z,96076.88
2023-02-28T07:40:30.392Z,96071.63
2023-02-28T07:43:02.323Z,96070.28
2023-02-28T07:45:35.264Z,96074.00
2023-02-28T07:48:05.321Z,96071.19
2023-02-28T07:50:35.660Z,96068.88
2023-02-28T07:53:05.527Z,96079.06
2023-02-28T07:55:35.078Z,96069.19
2023-02-28T07:58:06.122Z,96069.81
2023-02-28T08:00:35.860Z,96077.38
2023-02-28T08:03:05.586Z,96074.56
2023-02-28T08:05:35.187Z,96077.03
2023-02-28T08:08:04.883Z,96071.94
2023-02-28T08:10:34.676Z,96084.22
2023-02-28T08:13:05.900Z,96084.22
2023-02-28T08:15:35.676Z,96088.31
2023-02-28T08:18:05.561Z,96095.41
2023-02-28T08:20:36.603Z,96089.16
2023-02-28T08:23:06.760Z,96103.63
2023-02-28T08:25:36.657Z,96100.63
2023-02-28T08:28:09.882Z,96106.72
2023-02-28T08:30:41.989Z,96104.25
2023-02-28T08:33:12.487Z,96104.75
2023-02-28T08:35:42.453Z,96109.50
2023-02-28T08:38:12.293Z,96104.56
2023-02-28T08:40:42.546Z,96104.56
2023-02-28T08:43:13.901Z,96105.38
2023-02-28T08:45:43.779Z,96112.59
2023-02-28T08:48:14.621Z,96108.78
2023-02-28T08:50:50.422Z,96122.72
2023-02-28T08:53:26.120Z,96116.44
2023-02-28T08:56:01.303Z,96117.09
2023-02-28T08:58:32.584Z,96118.72
2023-02-28T09:01:02.647Z,96124.13
2023-02-28T09:03:32.151Z,96122.84
2023-02-28T09:06:02.965Z,96121.53
2023-02-28T09:08:33.133Z,96115.94
2023-02-28T09:11:03.876Z,96116.91
2023-02-28T09:13:35.487Z,96122.38
2023-02-28T09:16:09.920Z,96123.31
2023-02-28T09:18:40.917Z,96122.78
2023-02-28T09:21:15.000Z,96119.97
2023-02-28T09:23:46.262Z,96132.91
2023-02-28T09:26:17.995Z,96134.63
2023-02-28T09:28:48.946Z,96132.09
2023-02-28T09:31:24.434Z,96131.38
2023-02-28T09:33:57.813Z,96127.91
2023-02-28T09:36:41.881Z,96141.06
2023-02-28T09:39:16.576Z,96147.69
2023-02-28T09:41:51.963Z,96146.66
2023-02-28T09:44:34.035Z,96146.41
2023-02-28T09:47:15.346Z,96149.13
2023-02-28T09:49:50.047Z,96150.84
2023-02-28T09:52:24.387Z,96162.31
2023-02-28T09:54:55.865Z,96152.22
2023-02-28T09:57:40.166Z,96156.97
2023-02-28T10:00:20.771Z,96159.53
2023-02-28T10:03:28.131Z,96164.38
2023-02-28T10:06:07.993Z,96167.66
2023-02-28T10:08:47.983Z,96171.22
2023-02-28T10:11:21.672Z,96161.75
2023-02-28T10:14:02.513Z,96165.50
2023-02-28T10:16:39.909Z,96152.63
2023-02-28T10:19:21.380Z,96162.38
2023-02-28T10:22:00.284Z,96165.19
2023-02-28T10:24:40.155Z,96168.19
2023-02-28T10:27:19.639Z,96176.03
2023-02-28T10:29:54.192Z,96170.81
2023-02-28T10:32:31.042Z,96177.66
2023-02-28T10:35:13.604Z,96173.97
2023-02-28T10:37:48.848Z,96171.44
2023-02-28T10:40:36.523Z,96176.56
2023-02-28T10:43:18.180Z,96175.13
2023-02-28T10:46:02.630Z,96171.44
2023-02-28T10:48:40.203Z,96182.84
2023-02-28T10:51:13.829Z,96181.16
2023-02-28T10:54:02.673Z,96180.34
2023-02-28T10:56:34.499Z,96177.31
2023-02-28T10:59:28.741Z,96169.94
2023-02-28T11:02:00.287Z,96185.81
2023-02-28T11:04:41.890Z,96179.88
2023-02-28T11:07:24.556Z,96182.25
2023-02-28T11:09:58.574Z,96194.09
2023-02-28T11:12:37.876Z,96187.19
2023-02-28T11:15:28.378Z,96190.66
2023-02-28T11:18:02.747Z,96189.75
2023-02-28T11:20:36.622Z,96184.44
2023-02-28T11:23:13.858Z,96196.56
2023-02-28T11:25:54.794Z,96192.38
2023-02-28T11:28:33.473Z,96186.13
2023-02-28T11:31:18.012Z,96181.53
2023-02-28T11:33:51.912Z,96189.63
2023-02-28T11:36:26.945Z,96181.00
2023-02-28T11:39:02.584Z,96173.94
2023-02-28T11:42:09.400Z,96172.81
2023-02-28T11:44:59.484Z,96171.16
2023-02-28T11:47:41.176Z,96166.28
2023-02-28T11:50:56.250Z,96156.13
2023-02-28T11:53:54.472Z,96161.38
2023-02-28T11:56:34.143Z,96150.19
2023-02-28T11:59:36.739Z,96143.47
2023-02-28T12:02:30.285Z,96143.72
2023-02-28T12:05:25.078Z,96147.63
2023-02-28T12:08:25.105Z,96141.94
2023-02-28T12:11:14.597Z,96134.09
2023-02-28T12:14:00.691Z,96145.09
2023-02-28T12:16:48.395Z,96137.63
2023-02-28T12:19:25.960Z,96146.06
2023-02-28T12:22:27.672Z,96137.28
2023-02-28T12:26:04.157Z,96128.78
2023-02-28T12:28:42.144Z,96125.13
2023-02-28T12:31:20.678Z,96129.25
2023-02-28T12:33:59.509Z,96125.59
2023-02-28T12:36:29.627Z,96127.06
2023-02-28T12:39:07.683Z,96112.81
2023-02-28T12:41:47.430Z,96109.56
2023-02-28T12:44:24.189Z,96105.72
2023-02-28T12:46:57.993Z,96113.88
2023-02-28T12:49:36.143Z,96112.06
2023-02-28T12:52:12.010Z,96104.53
2023-02-28T12:54:56.384Z,96102.25
2023-02-28T12:57:39.064Z,96097.34
2023-02-28T13:00:16.994Z,96103.63
2023-02-28T13:03:31.953Z,96102.47
2023-02-28T13:06:31.150Z,96093.22
2023-02-28T13:09:11.551Z,96087.25
2023-02-28T13:11:45.743Z,96089.72
2023-02-28T13:14:31.355Z,96092.94
2023-02-28T13:17:14.051Z,96095.97
2023-02-28T13:19:48.625Z,96093.41
2023-02-28T13:22:41.975Z,96095.38
2023-02-28T13:25:55.567Z,96096.50
2023-02-28T13:29:26.692Z,96096.94
2023-02-28T13:32:40.056Z,96090.97
2023-02-28T13:35:40.491Z,96091.69
2023-02-28T13:38:39.960Z,96092.28
2023-02-28T13:41:46.276Z,96097.47
2023-02-28T13:44:24.261Z,96097.53
2023-02-28T13:47:31.898Z,96102.53
2023-02-28T13:50:25.244Z,96096.03
2023-02-28T13:53:41.764Z,96105.28
2023-02-28T13:56:31.609Z,96104.66
2023-02-28T13:59:18.624Z,96099.75
2023-02-28T14:02:31.746Z,96104.25
2023-02-28T14:05:08.911Z,96097.34
2023-02-28T14:07:47.191Z,96112.69
2023-02-28T14:10:41.493Z,96106.34
2023-02-28T14:13:49.358Z,96101.59
2023-02-28T14:16:23.690Z,96103.56
2023-02-28T14:19:01.272Z,96098.00
2023-02-28T14:21:35.270Z,96087.63
2023-02-28T14:24:53.814Z,96091.66
2023-02-28T14:27:39.427Z,96091.88
2023-02-28T14:31:03.134Z,96102.63
2023-02-28T14:34:07.291Z,96097.91
2023-02-28T14:36:39.313Z,96095.03
2023-02-28T14:39:15.462Z,96099.38
2023-02-28T14:41:47.096Z,96106.81
2023-02-28T15:39:27.962Z,96101.84
2023-02-28T15:42:13.087Z,96097.44
2023-02-28T15:44:42.636Z,96101.78
2023-02-28T15:47:21.856Z,96100.91
2023-02-28T15:49:55.006Z,96100.13
2023-02-28T15:52:33.440Z,96109.81
2023-02-28T15:55:13.706Z,96109.75
2023-02-28T15:57:43.664Z,96106.78
2023-02-28T16:00:18.180Z,96110.00
2023-02-28T16:02:51.991Z,96110.75
2023-02-28T16:05:31.573Z,96115.41
2023-02-28T16:08:08.791Z,96106.50
2023-02-28T16:10:39.662Z,96108.50
2023-02-28T16:13:16.147Z,96106.34
2023-02-28T16:15:46.595Z,96116.03
2023-02-28T16:18:16.502Z,96117.47
2023-02-28T16:20:46.471Z,96116.88
2023-02-28T16:23:21.438Z,96116.31
2023-02-28T16:25:52.509Z,96124.50
2023-02-28T16:28:30.863Z,96123.94
2023-02-28T16:31:03.670Z,96128.00
2023-02-28T16:33:34.402Z,96126.19
2023-02-28T16:36:04.477Z,96123.50
2023-02-28T16:38:59.349Z,96128.41
2023-02-28T16:41:31.914Z,96126.34
2023-02-28T16:44:02.833Z,96134.53
2023-02-28T16:46:37.189Z,96136.94
2023-02-28T16:49:06.746Z,96134.44
2023-02-28T16:51:36.817Z,96133.22
2023-02-28T16:54:07.047Z,96135.84
2023-02-28T16:56:47.494Z,96137.22
2023-02-28T16:59:24.423Z,96141.06
2023-02-28T17:01:54.222Z,96146.53
2023-02-28T17:04:23.908Z,96151.78
2023-02-28T17:06:53.548Z,96147.06
2023-02-28T17:09:36.555Z,96151.50
2023-02-28T17:12:37.597Z,96151.84
2023-02-28T17:15:10.653Z,96154.66
2023-02-28T17:17:41.158Z,96153.81
2023-02-28T17:20:16.275Z,96164.34
2023-02-28T17:22:46.005Z,96168.56
2023-02-28T17:25:15.614Z,96164.44
2023-02-28T17:27:46.733Z,96165.22
2023-02-28T17:30:20.141Z,96167.59
2023-02-28T17:33:14.749Z,96171.00
2023-02-28T17:35:44.311Z,96179.72
2023-02-28T17:38:39.083Z,96178.03
2023-02-28T17:41:09.924Z,96174.31
2023-02-28T17:43:41.869Z,96178.53
2023-02-28T17:46:21.599Z,96174.16
2023-02-28T17:48:52.364Z,96173.13
2023-02-28T17:51:48.081Z,96170.22
2023-02-28T17:54:19.147Z,96172.59
2023-02-28T17:56:49.179Z,96167.25
2023-02-28T17:59:20.429Z,96172.91
2023-02-28T18:01:50.055Z,96178.59
2023-02-28T18:05:01.237Z,96176.88
2023-02-28T18:07:30.772Z,96179.25
2023-02-28T18:10:28.429Z,96183.44
2023-02-28T18:12:58.057Z,96178.34
2023-02-28T18:15:43.874Z,96174.44
2023-02-28T18:18:13.526Z,96173.25
2023-02-28T18:20:43.202Z,96175.06
2023-02-28T18:23:12.894Z,96186.09
2023-02-28T18:25:42.626Z,96181.63
2023-02-28T18:28:12.184Z,96177.78
2023-02-28T18:30:44.318Z,96176.78
2023-02-28T18:33:14.089Z,96175.78
2023-02-28T18:35:44.777Z,96181.53
2023-02-28T18:38:19.296Z,96178.50
2023-02-28T18:40:55.485Z,96168.38
2023-02-28T18:43:25.172Z,96175.72
2023-02-28T18:45:56.335Z,96175.34
2023-02-28T18:48:26.281Z,96175.81
2023-02-28T18:50:55.856Z,96178.25
2023-02-28T18:53:56.205Z,96173.59
2023-02-28T18:56:27.613Z,96174.44
2023-02-28T18:58:57.348Z,96174.25
2023-02-28T19:01:32.073Z,96167.31
2023-02-28T19:04:03.669Z,96163.47
2023-02-28T19:06:34.591Z,96167.75
2023-02-28T19:09:06.607Z,96171.22
2023-02-28T19:11:36.876Z,96165.94
2023-02-28T19:14:06.772Z,96169.41
2023-02-28T19:16:38.047Z,96171.84
2023-02-28T19:19:07.666Z,96162.91
2023-02-28T19:21:37.493Z,96162.72
2023-02-28T19:24:08.013Z,96166.19
2023-02-28T19:26:37.711Z,96164.56
2023-02-28T19:29:07.579Z,96158.44
2023-02-28T19:31:38.939Z,96161.91
2023-02-28T19:34:08.613Z,96164.56
2023-02-28T19:36:38.362Z,96169.84
2023-02-28T19:39:08.513Z,96169.47
2023-02-28T19:41:38.184Z,96161.53
2023-02-28T19:44:07.875Z,96167.84
2023-02-28T19:46:39.257Z,96165.19
2023-02-28T19:49:09.057Z,96168.03
2023-02-28T19:51:39.478Z,96174.13
2023-02-28T19:54:09.930Z,96167.84
2023-02-28T19:56:40.135Z,96169.66
2023-02-28T19:59:21.044Z,96161.72
2023-02-28T20:01:56.288Z,96158.25
2023-02-28T20:04:28.303Z,96163.16
2023-02-28T20:06:58.127Z,96172.94
2023-02-28T20:09:32.165Z,96162.53
2023-02-28T20:12:02.594Z,96162.53
2023-02-28T20:14:33.531Z,96157.25
2023-02-28T20:17:04.605Z,96157.88
2023-02-28T20:19:34.214Z,96166.63
2023-02-28T20:22:03.938Z,96161.53
2023-02-28T20:24:33.719Z,96159.72
2023-02-28T20:27:03.964Z,96156.06
2023-02-28T20:29:35.102Z,96162.34
2023-02-28T20:32:08.235Z,96163.16
2023-02-28T20:34:38.118Z,96158.88
2023-02-28T20:37:08.927Z,96158.69
2023-02-28T20:39:38.557Z,96157.06
2023-02-28T20:42:11.139Z,96154.22
2023-02-28T20:44:41.129Z,96165.03
2023-02-28T20:47:14.880Z,96162.78
2023-02-28T20:49:44.565Z,96154.63
2023-02-28T20:52:14.674Z,96151.41
2023-02-28T20:54:44.325Z,96159.34
2023-02-28T20:57:14.165Z,96156.28
2023-02-28T20:59:43.870Z,96156.47
2023-02-28T21:02:18.219Z,96157.28
2023-02-28T21:04:48.095Z,96155.66
2023-02-28T21:07:17.666Z,96156.47
2023-02-28T21:09:47.296Z,96151.19
2023-02-28T21:12:17.001Z,96158.09
2023-02-28T21:14:46.749Z,96148.53
2023-02-28T21:17:17.765Z,96154.63
2023-02-28T21:19:48.011Z,96146.69
2023-02-28T21:22:17.660Z,96152.00
2023-02-28T21:24:47.329Z,96149.34
2023-02-28T21:27:16.911Z,96154.22
2023-02-28T21:29:46.421Z,96155.88
2023-02-28T21:32:17.889Z,96148.94
2023-02-28T21:34:48.032Z,96149.13
2023-02-28T21:37:17.694Z,96148.13
2023-02-28T21:39:47.410Z,96145.47
2023-02-28T21:42:17.026Z,96140.19
2023-02-28T21:44:47.197Z,96140.00
2023-02-28T21:47:18.016Z,96133.25
2023-02-28T21:49:47.518Z,96136.91
2023-02-28T21:52:21.828Z,96132.63
2023-02-28T21:54:51.361Z,96132.63
2023-02-28T21:57:20.925Z,96132.81
2023-02-28T21:59:50.821Z,96126.69
2023-02-28T22:02:21.912Z,96135.25
2023-02-28T22:04:51.874Z,96130.78
2023-02-28T22:07:21.556Z,96136.28
2023-02-28T22:09:51.593Z,96137.91
2023-02-28T22:12:21.430Z,96141.56
2023-02-28T22:14:51.613Z,96129.16
2023-02-28T22:17:23.248Z,96137.91
2023-02-28T22:19:52.964Z,96135.25
2023-02-28T22:22:22.556Z,96131.78
2023-02-28T22:24:52.236Z,96130.34
2023-02-28T22:27:22.115Z,96142.56
2023-02-28T22:29:52.129Z,96143.75
2023-02-28T22:32:23.784Z,96136.84
2023-02-28T22:34:54.070Z,96133.56
2023-02-28T22:37:23.817Z,96139.47
2023-02-28T22:39:53.518Z,96141.13
2023-02-28T22:42:23.133Z,96139.66
2023-02-28T22:44:53.217Z,96135.38
2023-02-28T22:47:26.508Z,96138.47
2023-02-28T22:49:56.155Z,96130.91
2023-02-28T22:52:25.804Z,96124.16
2023-02-28T22:54:55.596Z,96131.28
2023-02-28T22:57:25.324Z,96118.25
2023-02-28T22:59:55.046Z,96125.16
2023-02-28T23:02:26.255Z,96125.16
2023-02-28T23:04:56.668Z,96129.66
2023-02-28T23:07:31.650Z,96133.28
2023-02-28T23:10:01.517Z,96128.63
2023-02-28T23:12:31.168Z,96130.66
2023-02-28T23:15:01.300Z,96136.56
2023-02-28T23:17:34.343Z,96134.13
2023-02-28T23:20:04.837Z,96134.31
2023-02-28T23:22:34.660Z,96127.00
2023-02-28T23:25:04.666Z,96133.28
2023-02-28T23:27:34.278Z,96134.13
2023-02-28T23:30:04.447Z,96123.28
2023-02-28T23:32:35.523Z,96128.00
2023-02-28T23:35:07.018Z,96134.13
2023-02-28T23:37:37.706Z,96137.75
2023-02-28T23:40:12.797Z,96126.00
2023-02-28T23:42:42.207Z,96127.81
2023-02-28T23:45:12.533Z,96131.28
2023-02-28T23:47:43.382Z,96130.47
2023-02-28T23:50:13.639Z,96122.53
2023-02-28T23:52:43.587Z,96125.16
2023-02-28T23:55:13.244Z,96110.50
2023-02-28T23:57:42.854Z,96113.31
